Mct Breithorn — HBHC — position and weather

sailwx.info

Track history (hours):
 
Tides and Currents Weather Stations Pressure Air Temp Water Temp Dewpoint Dewpoint Depression Visibility Wind Speed Wind Dir Waves Ship Positions

Mct Breithorn

Last reported at 2015-Jul-09 22:22 UTC. Time now 2015-Aug-30 11:54 UTC.
Position N 34°07' W 013°39'.
Warning: this ship's position is 51 days out of date.

Length 165 m; draft 9.8 m.

Type: Ship (hazmat cat D). MMSI: 269848000.

Date/timePositionNaut miles runAvg speedWind from/ knotsBaromVisibWave heightAir tempDewpointWater temp
2015-Jul-09 22:22N 34°07' W 013°39'6612.6
2015-Jul-09 17:10N 34°26' W 012°23'812.3
2015-Jul-09 16:33N 34°28' W 012°15'1312.1
2015-Jul-09 15:31N 34°32' W 011°60'1212.0
2015-Jul-09 14:29N 34°36' W 011°45'1712.2
2015-Jul-09 13:05N 34°41' W 011°26'712.0
2015-Jul-09 12:32N 34°43' W 011°18'4812.0
2015-Jul-09 08:30N 34°57' W 010°22'1212.1
2015-Jul-09 07:28N 35°00' W 010°07'1111.6
2015-Jul-09 06:32N 35°04' W 009°55'1111.2
2015-Jul-09 05:33N 35°07' W 009°42'1111.1
2015-Jul-09 04:32N 35°10' W 009°29'1111.1
2015-Jul-09 03:34N 35°13' W 009°16'1111.1
2015-Jul-09 02:33N 35°17' W 009°03'1111.2
2015-Jul-09 01:32N 35°20' W 008°50'1111.1
2015-Jul-09 00:33N 35°23' W 008°37'1111.2
2015-Jul-08 23:33N 35°26' W 008°23'2311.3
2015-Jul-08 21:33N 35°33' W 007°57'1111.4
2015-Jul-08 20:33N 35°36' W 007°44'1111.4
2015-Jul-08 19:33N 35°40' W 007°30'1111.3
2015-Jul-08 18:33N 35°43' W 007°17'1111.4
2015-Jul-08 17:33N 35°46' W 007°04'1211.6
2015-Jul-08 16:33N 35°50' W 006°50'194 9.6
2015-Jul-07 20:18N 36°20' W 002°52'912.2
2015-Jul-07 19:33N 36°22' W 002°41'1212.2
2015-Jul-07 18:33N 36°23' W 002°26'1212.1
2015-Jul-07 17:32N 36°26' W 002°11'1212.5
2015-Jul-07 16:34N 36°34' W 001°59'1612.7
2015-Jul-07 15:19N 36°44' W 001°45'1012.6
2015-Jul-07 14:32N 36°51' W 001°35'1212.7
2015-Jul-07 13:33N 36°59' W 001°24'1512.5
2015-Jul-07 12:22N 37°09' W 001°10'1112.7
2015-Jul-07 11:30N 37°16' W 000°59'1212.6
2015-Jul-07 10:33N 37°24' W 000°48'1312.7
2015-Jul-07 09:30N 37°33' W 000°36'1212.1
2015-Jul-07 08:34N 37°42' W 000°27'1212.4
2015-Jul-07 07:33N 37°52' W 000°18'1212.0
2015-Jul-07 06:33N 38°02' W 000°10'1212.0
2015-Jul-07 05:33N 38°13' W 000°02'1312.2
2015-Jul-07 04:29N 38°23' E 000°07'1311.7
2015-Jul-07 03:24N 38°34' E 000°16'1612.0
2015-Jul-07 02:06N 38°47' E 000°27'6311.4
2015-Jul-06 20:33N 39°43' E 001°05'1110.7
2015-Jul-06 19:33N 39°53' E 001°12'1110.9
2015-Jul-06 18:33N 40°02' E 001°19'1110.9
2015-Jul-06 17:33N 40°12' E 001°26'1111.1
2015-Jul-06 16:33N 40°22' E 001°33'1211.6
2015-Jul-06 15:33N 40°32' E 001°40'1111.1
2015-Jul-06 14:33N 40°42' E 001°47'1212.1
2015-Jul-06 13:33N 40°52' E 001°54'1212.3
2015-Jul-06 12:33N 41°03' E 002°02'1211.9
2015-Jul-06 11:33N 41°14' E 002°09'4 3.4
2015-Jul-06 10:32N 41°17' E 002°12'  
2015-Jul-04 06:12N 41°20' E 002°09'2 0.8
2015-Jul-04 03:29N 41°19' E 002°12'0 0.0
2015-Jul-03 23:30N 41°19' E 002°12'0 0.0
2015-Jul-03 19:23N 41°19' E 002°12'0 0.0
2015-Jul-03 17:29N 41°19' E 002°12'0 0.0
2015-Jul-03 12:32N 41°19' E 002°12'0 0.0
2015-Jul-03 10:29N 41°19' E 002°12'0 0.0
2015-Jul-03 03:30N 41°19' E 002°12'0 0.0
2015-Jul-03 02:17N 41°19' E 002°12'0 0.0
2015-Jul-03 01:23N 41°19' E 002°12'0 0.0
2015-Jul-03 00:29N 41°19' E 002°12'0 0.0
2015-Jul-02 23:17N 41°19' E 002°12'0 0.0
2015-Jul-02 20:24N 41°19' E 002°12'0 0.0
2015-Jul-02 18:05N 41°19' E 002°12'0 0.0
2015-Jul-02 16:30N 41°19' E 002°12'0 0.0
2015-Jul-02 15:11N 41°19' E 002°12'0 0.0
2015-Jul-02 14:18N 41°19' E 002°12'0 0.0
2015-Jul-02 12:05N 41°19' E 002°12'0 0.0
2015-Jul-02 11:29N 41°19' E 002°12'0 0.0
2015-Jul-02 09:24N 41°19' E 002°12'0 0.0
2015-Jul-02 06:24N 41°19' E 002°12'0 0.0
2015-Jul-02 04:12N 41°19' E 002°12'0 0.0
2015-Jul-02 02:23N 41°19' E 002°12'0 0.0
2015-Jul-02 01:12N 41°19' E 002°12'0 0.0
2015-Jul-01 22:29N 41°19' E 002°12'0 0.0
2015-Jul-01 20:29N 41°19' E 002°12'0 0.0
2015-Jul-01 19:26N 41°19' E 002°12'0 0.0
2015-Jul-01 16:32N 41°19' E 002°12'0 0.1
2015-Jul-01 15:20N 41°19' E 002°12'0 0.2
2015-Jul-01 14:33N 41°19' E 002°12'9 8.8
2015-Jul-01 13:33N 41°10' E 002°09'1413.0
2015-Jul-01 12:28N 40°58' E 002°01'1212.9
2015-Jul-01 11:33N 40°47' E 001°53'1312.8
2015-Jul-01 10:32N 40°36' E 001°45'1313.0
2015-Jul-01 09:33N 40°24' E 001°37'1313.1
2015-Jul-01 08:33N 40°13' E 001°29'1313.0
2015-Jul-01 07:33N 40°01' E 001°21'1313.0
2015-Jul-01 06:33N 39°50' E 001°14'1413.2
2015-Jul-01 05:30N 39°37' E 001°05'1213.0
2015-Jul-01 04:33N 39°27' E 000°58'1313.1
2015-Jul-01 03:33N 39°15' E 000°50'5313.2
2015-Jun-30 23:31N 38°29' E 000°16'2812.7
2015-Jun-30 21:21N 38°06' W 000°03'1213.0
2015-Jun-30 20:26N 37°56' W 000°11'1213.2
2015-Jun-30 19:33N 37°46' W 000°19'1313.2
2015-Jun-30 18:33N 37°35' W 000°29'1313.0
2015-Jun-30 17:33N 37°26' W 000°40'1312.6
2015-Jun-30 16:33N 37°18' W 000°52'1212.6
2015-Jun-30 15:33N 37°10' W 001°04'1312.6
2015-Jun-30 14:33N 37°01' W 001°16'1312.5
2015-Jun-30 13:33N 36°53' W 001°27'5012.1
2015-Jun-30 09:23N 36°21' W 002°16'1112.1
2015-Jun-30 08:30N 36°20' W 002°29'1212.7
2015-Jun-30 07:33N 36°18' W 002°44'12814.2
2015-Jun-29 22:33N 35°59' W 005°21'  
Track history (hours):
 
Tides and Currents Weather Stations Pressure Air Temp Water Temp Dewpoint Dewpoint Depression Visibility Wind Speed Wind Dir Waves Ship Positions

Mct Breithorn

Last reported at 2015-Jul-09 22:22 UTC. Time now 2015-Aug-30 11:54 UTC.
Position N 34°07' W 013°39'.
Warning: this ship's position is 51 days out of date.

Length 165 m; draft 9.8 m.

Type: Ship (hazmat cat D). MMSI: 269848000.

Date/timePositionNaut miles runAvg speedWind from/ knotsBaromVisibWave heightAir tempDewpointWater temp
2015-Jul-09 22:22N 34°07' W 013°39'6612.6
2015-Jul-09 17:10N 34°26' W 012°23'812.3
2015-Jul-09 16:33N 34°28' W 012°15'1312.1
2015-Jul-09 15:31N 34°32' W 011°60'1212.0
2015-Jul-09 14:29N 34°36' W 011°45'1712.2
2015-Jul-09 13:05N 34°41' W 011°26'712.0
2015-Jul-09 12:32N 34°43' W 011°18'4812.0
2015-Jul-09 08:30N 34°57' W 010°22'1212.1
2015-Jul-09 07:28N 35°00' W 010°07'1111.6
2015-Jul-09 06:32N 35°04' W 009°55'1111.2
2015-Jul-09 05:33N 35°07' W 009°42'1111.1
2015-Jul-09 04:32N 35°10' W 009°29'1111.1
2015-Jul-09 03:34N 35°13' W 009°16'1111.1
2015-Jul-09 02:33N 35°17' W 009°03'1111.2
2015-Jul-09 01:32N 35°20' W 008°50'1111.1
2015-Jul-09 00:33N 35°23' W 008°37'1111.2
2015-Jul-08 23:33N 35°26' W 008°23'2311.3
2015-Jul-08 21:33N 35°33' W 007°57'1111.4
2015-Jul-08 20:33N 35°36' W 007°44'1111.4
2015-Jul-08 19:33N 35°40' W 007°30'1111.3
2015-Jul-08 18:33N 35°43' W 007°17'1111.4
2015-Jul-08 17:33N 35°46' W 007°04'1211.6
2015-Jul-08 16:33N 35°50' W 006°50'194 9.6
2015-Jul-07 20:18N 36°20' W 002°52'912.2
2015-Jul-07 19:33N 36°22' W 002°41'1212.2
2015-Jul-07 18:33N 36°23' W 002°26'1212.1
2015-Jul-07 17:32N 36°26' W 002°11'1212.5
2015-Jul-07 16:34N 36°34' W 001°59'1612.7
2015-Jul-07 15:19N 36°44' W 001°45'1012.6
2015-Jul-07 14:32N 36°51' W 001°35'1212.7
2015-Jul-07 13:33N 36°59' W 001°24'1512.5
2015-Jul-07 12:22N 37°09' W 001°10'1112.7
2015-Jul-07 11:30N 37°16' W 000°59'1212.6
2015-Jul-07 10:33N 37°24' W 000°48'1312.7
2015-Jul-07 09:30N 37°33' W 000°36'1212.1
2015-Jul-07 08:34N 37°42' W 000°27'1212.4
2015-Jul-07 07:33N 37°52' W 000°18'1212.0
2015-Jul-07 06:33N 38°02' W 000°10'1212.0
2015-Jul-07 05:33N 38°13' W 000°02'1312.2
2015-Jul-07 04:29N 38°23' E 000°07'1311.7
2015-Jul-07 03:24N 38°34' E 000°16'1612.0
2015-Jul-07 02:06N 38°47' E 000°27'6311.4
2015-Jul-06 20:33N 39°43' E 001°05'1110.7
2015-Jul-06 19:33N 39°53' E 001°12'1110.9
2015-Jul-06 18:33N 40°02' E 001°19'1110.9
2015-Jul-06 17:33N 40°12' E 001°26'1111.1
2015-Jul-06 16:33N 40°22' E 001°33'1211.6
2015-Jul-06 15:33N 40°32' E 001°40'1111.1
2015-Jul-06 14:33N 40°42' E 001°47'1212.1
2015-Jul-06 13:33N 40°52' E 001°54'1212.3
2015-Jul-06 12:33N 41°03' E 002°02'1211.9
2015-Jul-06 11:33N 41°14' E 002°09'4 3.4
2015-Jul-06 10:32N 41°17' E 002°12'  
2015-Jul-04 06:12N 41°20' E 002°09'2 0.8
2015-Jul-04 03:29N 41°19' E 002°12'0 0.0
2015-Jul-03 23:30N 41°19' E 002°12'0 0.0
2015-Jul-03 19:23N 41°19' E 002°12'0 0.0
2015-Jul-03 17:29N 41°19' E 002°12'0 0.0
2015-Jul-03 12:32N 41°19' E 002°12'0 0.0
2015-Jul-03 10:29N 41°19' E 002°12'0 0.0
2015-Jul-03 03:30N 41°19' E 002°12'0 0.0
2015-Jul-03 02:17N 41°19' E 002°12'0 0.0
2015-Jul-03 01:23N 41°19' E 002°12'0 0.0
2015-Jul-03 00:29N 41°19' E 002°12'0 0.0
2015-Jul-02 23:17N 41°19' E 002°12'0 0.0
2015-Jul-02 20:24N 41°19' E 002°12'0 0.0
2015-Jul-02 18:05N 41°19' E 002°12'0 0.0
2015-Jul-02 16:30N 41°19' E 002°12'0 0.0
2015-Jul-02 15:11N 41°19' E 002°12'0 0.0
2015-Jul-02 14:18N 41°19' E 002°12'0 0.0
2015-Jul-02 12:05N 41°19' E 002°12'0 0.0
2015-Jul-02 11:29N 41°19' E 002°12'0 0.0
2015-Jul-02 09:24N 41°19' E 002°12'0 0.0
2015-Jul-02 06:24N 41°19' E 002°12'0 0.0
2015-Jul-02 04:12N 41°19' E 002°12'0 0.0
2015-Jul-02 02:23N 41°19' E 002°12'0 0.0
2015-Jul-02 01:12N 41°19' E 002°12'0 0.0
2015-Jul-01 22:29N 41°19' E 002°12'0 0.0
2015-Jul-01 20:29N 41°19' E 002°12'0 0.0
2015-Jul-01 19:26N 41°19' E 002°12'0 0.0
2015-Jul-01 16:32N 41°19' E 002°12'0 0.1
2015-Jul-01 15:20N 41°19' E 002°12'0 0.2
2015-Jul-01 14:33N 41°19' E 002°12'9 8.8
2015-Jul-01 13:33N 41°10' E 002°09'1413.0
2015-Jul-01 12:28N 40°58' E 002°01'1212.9
2015-Jul-01 11:33N 40°47' E 001°53'1312.8
2015-Jul-01 10:32N 40°36' E 001°45'1313.0
2015-Jul-01 09:33N 40°24' E 001°37'1313.1
2015-Jul-01 08:33N 40°13' E 001°29'1313.0
2015-Jul-01 07:33N 40°01' E 001°21'1313.0
2015-Jul-01 06:33N 39°50' E 001°14'1413.2
2015-Jul-01 05:30N 39°37' E 001°05'1213.0
2015-Jul-01 04:33N 39°27' E 000°58'1313.1
2015-Jul-01 03:33N 39°15' E 000°50'5313.2
2015-Jun-30 23:31N 38°29' E 000°16'2812.7
2015-Jun-30 21:21N 38°06' W 000°03'1213.0
2015-Jun-30 20:26N 37°56' W 000°11'1213.2
2015-Jun-30 19:33N 37°46' W 000°19'1313.2
2015-Jun-30 18:33N 37°35' W 000°29'1313.0
2015-Jun-30 17:33N 37°26' W 000°40'1312.6
2015-Jun-30 16:33N 37°18' W 000°52'1212.6
2015-Jun-30 15:33N 37°10' W 001°04'1312.6
2015-Jun-30 14:33N 37°01' W 001°16'1312.5
2015-Jun-30 13:33N 36°53' W 001°27'5012.1
2015-Jun-30 09:23N 36°21' W 002°16'1112.1
2015-Jun-30 08:30N 36°20' W 002°29'1212.7
2015-Jun-30 07:33N 36°18' W 002°44'12814.2
2015-Jun-29 22:33N 35°59' W 005°21'  

Dump ship's entire track history